AirNav   Air Wisconsin Up To $57,000 Bonus
 
 965 users online  

6AL8 Malbis Med Park-Infirmary Health Heliport
Daphne, Alabama, USA

GOING TO DAPHNE?


FAA INFORMATION EFFECTIVE 26 JANUARY 2023

Location

FAA Identifier: 6AL8
Lat/Long: 30-39-16.6900N 087-51-15.3100W
30-39.278167N 087-51.255167W
30.6546361,-87.8542528
(estimated)
Elevation: 195 ft. / 59 m (estimated)
From city: 4 miles NE of DAPHNE, AL
Time zone: UTC -6 (UTC -5 during Daylight Saving Time)
Zip code: 36527

Heliport Operations

Heliport use: Private use. Permission required prior to landing
Activation date: 09/2017
Control tower: no
ARTCC: HOUSTON CENTER
FSS: ANNISTON FLIGHT SERVICE STATION
Attendance: ON CALL
Wind indicator: yes
Segmented circle: no

Heliport Communications

WX ASOS at BFM (11 nm W): PHONE 251-431-6762
WX AWOS-3PT at CQF (12 nm S): 118.425 (251-928-3242)
WX AWOS-3PT at 1R8 (13 nm N): 121.125 (251-580-5103)

Nearby radio navigation aids

VOR radial/distance  VOR name  Freq  Var
BFMr072/10.7BROOKLEY VORTAC116.3504E
SJIr094/26.4SEMMES VORTAC115.3005E
NUNr291/(28.9)SAUFLEY VOR112.2501E

 
NDB name  Hdg/Dist  Freq  Var  ID
WISLE106/24.024801WMOB -- --- -...

Heliport Services

Runway Information

Helipad H1

Dimensions: 40 x 40 ft. / 12 x 12 m
Surface: concrete
Runway edge lights: PERI
Latitude: 30-39.278167N
Longitude: 087-51.255167W
Elevation: 195.0 ft.
Traffic pattern: leftleft

Heliport Ownership and Management from official FAA records

Ownership: Privately-owned
Owner: INFIRMARY HEALTH SYSTEM
29487 ST. HWY 181
DAPHNE, AL 36526
Phone 251-435-2105
Manager: DENNIS SUMMERFORD
5 MOBILE INFIRMARY CIRCLE
MOBILE, AL 36607
Phone 251-435-2105

Additional Remarks

FOR CD CTC PENSACOLA APCH AT 850-266-6884 OR 850-266-6885.

Instrument Procedures

There are no published instrument procedures at 6AL8.

Some nearby airports with instrument procedures:

KBFM - Mobile International Airport (11 nm W)
KCQF - H L Sonny Callahan Airport (12 nm S)
1R8 - Bay Minette Municipal Airport (13 nm N)
5R4 - Foley Municipal Airport (16 nm SE)
KMOB - Mobile Regional Airport (20 nm W)
 
Loc | Ops | Rwys | IFR | FBO | Links
Com | Nav | Svcs | Stats | Notes
Aerial photo
No photo
 
Airport distance calculator
Flying to Malbis Med Park-Infirmary Health Heliport? Find the distance to fly.

From to 6AL8

Sunrise and sunset
Times for 30-Jan-2023
 Local
(UTC-6)
 Zulu
(UTC)
Morning civil twilight06:2012:20
Sunrise06:4512:45
Sunset17:2523:25
Evening civil twilight17:5023:50

Current date and time
Zulu (UTC)  31-Jan-2023 04:11:20
Local (UTC-6)  30-Jan-2023 22:11:20
 
METAR
KBFM 
11nm W 
310353Z AUTO 00000KT 1/2SM FG VV002 18/17 A3019 RMK AO2 SLP222 T01780172
KCQF 
12nm S 
310355Z AUTO 00000KT 1/4SM FG OVC003 17/17 A3017 RMK AO2
KMOB 
20nm W 
310356Z 00000KT 1/4SM FG VV002 18/17 A3018 RMK AO2 SLP218 T01830172
TAF
KBFM 
11nm W 
310223Z 3102/3124 00000KT 1/4SM FG VV003 FM310400 00000KT 1/4SM FG OVC002 FM310900 00000KT 1/4SM FG VV001 FM311600 02005KT 2SM BR OVC003 FM311800 05005KT P6SM OVC015
NOTAMs
Click for the latest NOTAMs
NOTAMs are issued by the DoD/FAA and will open in a separate window not controlled by AirNav.

 

 
 

Would you like to see your business listed on this page?

 If your business provides an interesting product or service to pilots, flight crews, aircraft, or users of the Malbis Med Park-Infirmary Health Heliport, you should consider listing it here.  To start the listing process, click on the button below
 
Add a business
 

Other Pages about Malbis Med Park-Infirmary Health Heliport

Update a link
 
Copyright © AirNav, LLC. All rights reserved. Privacy Policy  Contact